sensor_id;sensor_type;location;lat;lon;timestamp;pressure;altitude;pressure_sealevel;temperature;humidity
56668;BME280;42542;48.360;10.958;2022-10-15T00:01:15;95642.81;;;13.08;100.00
56668;BME280;42542;48.360;10.958;2022-10-15T00:04:17;95639.31;;;13.08;100.00
56668;BME280;42542;48.360;10.958;2022-10-15T00:07:18;95644.66;;;13.08;100.00
56668;BME280;42542;48.360;10.958;2022-10-15T00:10:21;95639.50;;;13.06;100.00
56668;BME280;42542;48.360;10.958;2022-10-15T00:13:23;95635.13;;;13.05;100.00
56668;BME280;42542;48.360;10.958;2022-10-15T00:16:26;95627.09;;;13.05;100.00
56668;BME280;42542;48.360;10.958;2022-10-15T00:19:28;95630.00;;;13.04;100.00
56668;BME280;42542;48.360;10.958;2022-10-15T00:22:30;95629.78;;;13.05;100.00
56668;BME280;42542;48.360;10.958;2022-10-15T00:25:32;95630.00;;;13.04;100.00
56668;BME280;42542;48.360;10.958;2022-10-15T00:28:33;95622.97;;;13.03;100.00
56668;BME280;42542;48.360;10.958;2022-10-15T00:31:35;95619.03;;;13.05;100.00
56668;BME280;42542;48.360;10.958;2022-10-15T00:34:39;95610.56;;;13.02;100.00
56668;BME280;42542;48.360;10.958;2022-10-15T00:37:41;95613.25;;;13.02;100.00
56668;BME280;42542;48.360;10.958;2022-10-15T00:40:44;95608.06;;;13.00;100.00
56668;BME280;42542;48.360;10.958;2022-10-15T00:43:53;95613.25;;;13.02;100.00
56668;BME280;42542;48.360;10.958;2022-10-15T00:47:16;95608.72;;;13.02;100.00
56668;BME280;42542;48.360;10.958;2022-10-15T00:50:24;95612.22;;;13.03;100.00
56668;BME280;42542;48.360;10.958;2022-10-15T00:53:27;95597.34;;;13.00;100.00
56668;BME280;42542;48.360;10.958;2022-10-15T00:56:30;95604.38;;;13.01;100.00
56668;BME280;42542;48.360;10.958;2022-10-15T00:59:36;95598.16;;;13.01;100.00
56668;BME280;42542;48.360;10.958;2022-10-15T01:02:39;95600.00;;;13.00;100.00
56668;BME280;42542;48.360;10.958;2022-10-15T01:05:42;95596.31;;;13.01;100.00
56668;BME280;42542;48.360;10.958;2022-10-15T01:08:44;95590.50;;;12.98;100.00
56668;BME280;42542;48.360;10.958;2022-10-15T01:11:48;95591.78;;;13.02;100.00
56668;BME280;42542;48.360;10.958;2022-10-15T01:18:20;95587.44;;;13.01;100.00
56668;BME280;42542;48.360;10.958;2022-10-15T01:24:55;95575.03;;;13.00;100.00
56668;BME280;42542;48.360;10.958;2022-10-15T01:37:52;95572.81;;;13.03;100.00
56668;BME280;42542;48.360;10.958;2022-10-15T01:41:00;95572.81;;;13.03;100.00
56668;BME280;42542;48.360;10.958;2022-10-15T01:44:10;95559.59;;;13.02;100.00
56668;BME280;42542;48.360;10.958;2022-10-15T01:47:41;95554.03;;;13.03;100.00
56668;BME280;42542;48.360;10.958;2022-10-15T01:50:47;95560.84;;;13.06;100.00
56668;BME280;42542;48.360;10.958;2022-10-15T01:53:50;95533.31;;;12.97;100.00
56668;BME280;42542;48.360;10.958;2022-10-15T01:56:53;95547.44;;;13.06;100.00
56668;BME280;42542;48.360;10.958;2022-10-15T01:59:57;95541.44;;;13.04;100.00
56668;BME280;42542;48.360;10.958;2022-10-15T02:02:59;95542.53;;;13.09;100.00
56668;BME280;42542;48.360;10.958;2022-10-15T02:06:06;95540.84;;;13.08;100.00
56668;BME280;42542;48.360;10.958;2022-10-15T02:16:05;95534.47;;;13.09;100.00
56668;BME280;42542;48.360;10.958;2022-10-15T02:19:31;95537.63;;;13.13;100.00
56668;BME280;42542;48.360;10.958;2022-10-15T02:22:42;95531.22;;;13.14;100.00
56668;BME280;42542;48.360;10.958;2022-10-15T02:25:49;95525.03;;;13.13;100.00
56668;BME280;42542;48.360;10.958;2022-10-15T02:28:55;95523.19;;;13.14;100.00
56668;BME280;42542;48.360;10.958;2022-10-15T02:31:59;95529.19;;;13.16;100.00
56668;BME280;42542;48.360;10.958;2022-10-15T02:35:06;95519.09;;;13.18;100.00
56668;BME280;42542;48.360;10.958;2022-10-15T02:38:14;95524.06;;;13.21;100.00
56668;BME280;42542;48.360;10.958;2022-10-15T02:41:17;95508.75;;;13.15;100.00
56668;BME280;42542;48.360;10.958;2022-10-15T02:44:20;95515.63;;;13.24;100.00
56668;BME280;42542;48.360;10.958;2022-10-15T02:47:22;95522.66;;;13.25;100.00
56668;BME280;42542;48.360;10.958;2022-10-15T02:50:27;95515.41;;;13.25;100.00
56668;BME280;42542;48.360;10.958;2022-10-15T02:53:28;95510.88;;;13.26;100.00
56668;BME280;42542;48.360;10.958;2022-10-15T02:56:30;95511.50;;;13.28;100.00
56668;BME280;42542;48.360;10.958;2022-10-15T02:59:32;95490.66;;;13.23;100.00
56668;BME280;42542;48.360;10.958;2022-10-15T03:02:35;95501.63;;;13.28;100.00
56668;BME280;42542;48.360;10.958;2022-10-15T03:05:37;95513.19;;;13.29;100.00
56668;BME280;42542;48.360;10.958;2022-10-15T03:08:39;95512.16;;;13.30;100.00
56668;BME280;42542;48.360;10.958;2022-10-15T03:11:43;95495.03;;;13.31;100.00
56668;BME280;42542;48.360;10.958;2022-10-15T03:14:45;95497.53;;;13.33;100.00
56668;BME280;42542;48.360;10.958;2022-10-15T03:17:48;95492.53;;;13.29;100.00
56668;BME280;42542;48.360;10.958;2022-10-15T03:20:53;95494.19;;;13.31;100.00
56668;BME280;42542;48.360;10.958;2022-10-15T03:23:56;95495.44;;;13.35;100.00
56668;BME280;42542;48.360;10.958;2022-10-15T03:26:58;95503.13;;;13.38;100.00
56668;BME280;42542;48.360;10.958;2022-10-15T03:30:00;95495.06;;;13.38;100.00
56668;BME280;42542;48.360;10.958;2022-10-15T03:33:04;95501.09;;;13.40;100.00
56668;BME280;42542;48.360;10.958;2022-10-15T03:36:07;95511.59;;;13.41;100.00
56668;BME280;42542;48.360;10.958;2022-10-15T03:39:10;95507.06;;;13.42;100.00
56668;BME280;42542;48.360;10.958;2022-10-15T03:42:13;95509.56;;;13.43;100.00
56668;BME280;42542;48.360;10.958;2022-10-15T03:45:24;95506.50;;;13.46;100.00
56668;BME280;42542;48.360;10.958;2022-10-15T03:48:43;95507.50;;;13.45;100.00
56668;BME280;42542;48.360;10.958;2022-10-15T03:51:47;95510.81;;;13.47;100.00
56668;BME280;42542;48.360;10.958;2022-10-15T03:54:50;95507.75;;;13.50;100.00
56668;BME280;42542;48.360;10.958;2022-10-15T03:57:54;95507.94;;;13.49;100.00
56668;BME280;42542;48.360;10.958;2022-10-15T04:00:55;95515.59;;;13.52;100.00
56668;BME280;42542;48.360;10.958;2022-10-15T04:03:57;95504.88;;;13.52;100.00
56668;BME280;42542;48.360;10.958;2022-10-15T04:06:59;95506.72;;;13.51;100.00
56668;BME280;42542;48.360;10.958;2022-10-15T04:10:03;95505.28;;;13.55;100.00
56668;BME280;42542;48.360;10.958;2022-10-15T04:13:11;95500.75;;;13.56;100.00
56668;BME280;42542;48.360;10.958;2022-10-15T04:16:14;95499.72;;;13.57;100.00
56668;BME280;42542;48.360;10.958;2022-10-15T04:19:16;95500.38;;;13.59;100.00
56668;BME280;42542;48.360;10.958;2022-10-15T04:22:27;95499.34;;;13.60;100.00
56668;BME280;42542;48.360;10.958;2022-10-15T04:25:33;95506.38;;;13.61;100.00
56668;BME280;42542;48.360;10.958;2022-10-15T04:28:36;95509.06;;;13.61;100.00
56668;BME280;42542;48.360;10.958;2022-10-15T04:31:38;95495.81;;;13.59;100.00
56668;BME280;42542;48.360;10.958;2022-10-15T04:34:41;95509.91;;;13.61;100.00
56668;BME280;42542;48.360;10.958;2022-10-15T04:37:43;95506.38;;;13.61;100.00
56668;BME280;42542;48.360;10.958;2022-10-15T04:40:45;95504.31;;;13.63;100.00
56668;BME280;42542;48.360;10.958;2022-10-15T04:43:47;95511.34;;;13.64;100.00
56668;BME280;42542;48.360;10.958;2022-10-15T04:46:48;95521.50;;;13.68;100.00
56668;BME280;42542;48.360;10.958;2022-10-15T04:50:16;95517.75;;;13.69;100.00
56668;BME280;42542;48.360;10.958;2022-10-15T04:53:37;95513.88;;;13.72;100.00
56668;BME280;42542;48.360;10.958;2022-10-15T04:56:38;95525.44;;;13.73;100.00
56668;BME280;42542;48.360;10.958;2022-10-15T04:59:40;95519.69;;;13.76;100.00
56668;BME280;42542;48.360;10.958;2022-10-15T05:03:01;95519.47;;;13.77;100.00
56668;BME280;42542;48.360;10.958;2022-10-15T05:06:16;95538.06;;;13.79;100.00
56668;BME280;42542;48.360;10.958;2022-10-15T05:09:19;95536.22;;;13.79;100.00
56668;BME280;42542;48.360;10.958;2022-10-15T05:12:24;95520.94;;;13.80;100.00
56668;BME280;42542;48.360;10.958;2022-10-15T05:15:26;95531.03;;;13.78;100.00
56668;BME280;42542;48.360;10.958;2022-10-15T05:18:39;95530.03;;;13.85;100.00
56668;BME280;42542;48.360;10.958;2022-10-15T05:21:42;95531.06;;;13.84;100.00
56668;BME280;42542;48.360;10.958;2022-10-15T05:24:53;95539.56;;;13.88;100.00
56668;BME280;42542;48.360;10.958;2022-10-15T05:28:01;95539.16;;;13.91;100.00
56668;BME280;42542;48.360;10.958;2022-10-15T05:31:07;95551.56;;;13.92;100.00
56668;BME280;42542;48.360;10.958;2022-10-15T05:34:10;95548.06;;;13.91;100.00
56668;BME280;42542;48.360;10.958;2022-10-15T05:37:27;95551.19;;;13.95;100.00
56668;BME280;42542;48.360;10.958;2022-10-15T05:40:29;95566.09;;;13.97;100.00
56668;BME280;42542;48.360;10.958;2022-10-15T05:43:54;95567.94;;;13.97;100.00
56668;BME280;42542;48.360;10.958;2022-10-15T05:46:59;95566.88;;;13.98;100.00
56668;BME280;42542;48.360;10.958;2022-10-15T05:50:01;95571.25;;;13.99;100.00
56668;BME280;42542;48.360;10.958;2022-10-15T05:53:13;95576.63;;;13.99;100.00
56668;BME280;42542;48.360;10.958;2022-10-15T05:56:25;95587.38;;;13.99;100.00
56668;BME280;42542;48.360;10.958;2022-10-15T05:59:27;95583.28;;;14.03;100.00
56668;BME280;42542;48.360;10.958;2022-10-15T06:02:29;95584.94;;;14.04;100.00
56668;BME280;42542;48.360;10.958;2022-10-15T06:05:30;95575.59;;;14.00;100.00
56668;BME280;42542;48.360;10.958;2022-10-15T06:08:32;95589.25;;;14.05;100.00
56668;BME280;42542;48.360;10.958;2022-10-15T06:11:35;95599.81;;;14.06;100.00
56668;BME280;42542;48.360;10.958;2022-10-15T06:14:37;95585.75;;;14.04;100.00
56668;BME280;42542;48.360;10.958;2022-10-15T06:17:40;95596.75;;;14.10;100.00
56668;BME280;42542;48.360;10.958;2022-10-15T06:20:43;95602.53;;;14.13;100.00
56668;BME280;42542;48.360;10.958;2022-10-15T06:23:51;95608.75;;;14.14;100.00
56668;BME280;42542;48.360;10.958;2022-10-15T06:26:53;95594.44;;;14.06;100.00
56668;BME280;42542;48.360;10.958;2022-10-15T06:29:57;95613.94;;;14.15;100.00
56668;BME280;42542;48.360;10.958;2022-10-15T06:32:59;95618.28;;;14.16;100.00
56668;BME280;42542;48.360;10.958;2022-10-15T06:36:03;95626.97;;;14.18;100.00
56668;BME280;42542;48.360;10.958;2022-10-15T06:39:05;95627.56;;;14.14;100.00
56668;BME280;42542;48.360;10.958;2022-10-15T06:42:12;95627.81;;;14.19;100.00
56668;BME280;42542;48.360;10.958;2022-10-15T06:45:13;95627.16;;;14.17;100.00
56668;BME280;42542;48.360;10.958;2022-10-15T06:48:21;95644.75;;;14.19;100.00
56668;BME280;42542;48.360;10.958;2022-10-15T06:51:23;95647.03;;;14.22;100.00
56668;BME280;42542;48.360;10.958;2022-10-15T06:54:24;95632.56;;;14.23;100.00
56668;BME280;42542;48.360;10.958;2022-10-15T06:57:27;95648.75;;;14.30;100.00
56668;BME280;42542;48.360;10.958;2022-10-15T07:00:28;95644.81;;;14.26;100.00
56668;BME280;42542;48.360;10.958;2022-10-15T07:03:30;95648.75;;;14.30;100.00
56668;BME280;42542;48.360;10.958;2022-10-15T07:06:34;95672.97;;;14.36;100.00
56668;BME280;42542;48.360;10.958;2022-10-15T07:09:35;95671.31;;;14.35;100.00
56668;BME280;42542;48.360;10.958;2022-10-15T07:12:37;95679.19;;;14.37;100.00
56668;BME280;42542;48.360;10.958;2022-10-15T07:15:39;95683.59;;;14.44;100.00
56668;BME280;42542;48.360;10.958;2022-10-15T07:18:40;95679.66;;;14.40;100.00
56668;BME280;42542;48.360;10.958;2022-10-15T07:21:42;95689.41;;;14.48;100.00
56668;BME280;42542;48.360;10.958;2022-10-15T07:24:44;95694.41;;;14.51;100.00
56668;BME280;42542;48.360;10.958;2022-10-15T07:27:46;95690.03;;;14.50;100.00
56668;BME280;42542;48.360;10.958;2022-10-15T07:30:47;95700.22;;;14.55;100.00
56668;BME280;42542;48.360;10.958;2022-10-15T07:33:49;95701.84;;;14.56;100.00
56668;BME280;42542;48.360;10.958;2022-10-15T07:36:51;95707.88;;;14.58;100.00
56668;BME280;42542;48.360;10.958;2022-10-15T07:39:53;95710.19;;;14.61;100.00
56668;BME280;42542;48.360;10.958;2022-10-15T07:42:56;95699.84;;;14.64;100.00
56668;BME280;42542;48.360;10.958;2022-10-15T07:46:04;95708.16;;;14.69;100.00
56668;BME280;42542;48.360;10.958;2022-10-15T07:49:06;95708.75;;;14.71;100.00
56668;BME280;42542;48.360;10.958;2022-10-15T07:52:09;95722.66;;;14.75;100.00
56668;BME280;42542;48.360;10.958;2022-10-15T07:55:11;95718.53;;;14.79;100.00
56668;BME280;42542;48.360;10.958;2022-10-15T07:58:13;95720.81;;;14.75;100.00
56668;BME280;42542;48.360;10.958;2022-10-15T08:01:14;95728.06;;;14.81;100.00
56668;BME280;42542;48.360;10.958;2022-10-15T08:04:17;95739.25;;;14.85;100.00
56668;BME280;42542;48.360;10.958;2022-10-15T08:07:22;95746.75;;;14.90;100.00
56668;BME280;42542;48.360;10.958;2022-10-15T08:10:24;95743.63;;;14.93;100.00
56668;BME280;42542;48.360;10.958;2022-10-15T08:13:26;95751.97;;;14.98;100.00
56668;BME280;42542;48.360;10.958;2022-10-15T08:16:28;95753.81;;;14.97;100.00
56668;BME280;42542;48.360;10.958;2022-10-15T08:19:33;95762.53;;;15.06;100.00
56668;BME280;42542;48.360;10.958;2022-10-15T08:22:35;95768.34;;;15.09;100.00
56668;BME280;42542;48.360;10.958;2022-10-15T08:25:36;95778.09;;;15.10;100.00
56668;BME280;42542;48.360;10.958;2022-10-15T08:28:38;95779.97;;;15.10;100.00
56668;BME280;42542;48.360;10.958;2022-10-15T08:31:40;95785.34;;;15.10;100.00
56668;BME280;42542;48.360;10.958;2022-10-15T08:34:42;95775.59;;;15.09;100.00
56668;BME280;42542;48.360;10.958;2022-10-15T08:37:44;95780.78;;;15.10;100.00
56668;BME280;42542;48.360;10.958;2022-10-15T08:40:56;95778.72;;;15.12;100.00
56668;BME280;42542;48.360;10.958;2022-10-15T08:43:58;95783.28;;;15.12;100.00
56668;BME280;42542;48.360;10.958;2022-10-15T08:50:25;95794.47;;;15.15;100.00
56668;BME280;42542;48.360;10.958;2022-10-15T08:53:28;95801.53;;;15.16;100.00
56668;BME280;42542;48.360;10.958;2022-10-15T08:56:37;95803.81;;;15.19;100.00
56668;BME280;42542;48.360;10.958;2022-10-15T08:59:54;95808.97;;;15.21;100.00
56668;BME280;42542;48.360;10.958;2022-10-15T09:03:26;95807.31;;;15.20;100.00
56668;BME280;42542;48.360;10.958;2022-10-15T09:06:36;95809.41;;;15.18;100.00
56668;BME280;42542;48.360;10.958;2022-10-15T09:09:50;95805.25;;;15.15;100.00
56668;BME280;42542;48.360;10.958;2022-10-15T09:13:00;95826.94;;;15.07;100.00
56668;BME280;42542;48.360;10.958;2022-10-15T09:16:16;95817.63;;;15.03;100.00
56668;BME280;42542;48.360;10.958;2022-10-15T09:19:21;95811.38;;;14.96;100.00
56668;BME280;42542;48.360;10.958;2022-10-15T09:22:29;95833.91;;;14.95;100.00
56668;BME280;42542;48.360;10.958;2022-10-15T09:25:34;95821.69;;;14.93;100.00
56668;BME280;42542;48.360;10.958;2022-10-15T09:35:12;95819.69;;;15.08;100.00
56668;BME280;42542;48.360;10.958;2022-10-15T09:44:27;95803.63;;;15.28;100.00
56668;BME280;42542;48.360;10.958;2022-10-15T09:47:34;95818.78;;;15.35;100.00
56668;BME280;42542;48.360;10.958;2022-10-15T09:50:43;95821.50;;;15.42;100.00
56668;BME280;42542;48.360;10.958;2022-10-15T09:53:59;95821.31;;;15.50;100.00
56668;BME280;42542;48.360;10.958;2022-10-15T09:57:02;95825.97;;;15.56;100.00
56668;BME280;42542;48.360;10.958;2022-10-15T10:00:09;95817.66;;;15.64;100.00
56668;BME280;42542;48.360;10.958;2022-10-15T10:03:14;95813.34;;;15.70;100.00
56668;BME280;42542;48.360;10.958;2022-10-15T10:06:16;95804.84;;;15.73;100.00
56668;BME280;42542;48.360;10.958;2022-10-15T10:09:51;95811.28;;;15.85;100.00
56668;BME280;42542;48.360;10.958;2022-10-15T10:12:55;95809.88;;;15.89;100.00
56668;BME280;42542;48.360;10.958;2022-10-15T10:16:03;95806.97;;;15.97;100.00
56668;BME280;42542;48.360;10.958;2022-10-15T10:19:13;95817.13;;;16.08;100.00
56668;BME280;42542;48.360;10.958;2022-10-15T10:22:18;95812.78;;;16.14;100.00
56668;BME280;42542;48.360;10.958;2022-10-15T10:28:34;95811.34;;;16.37;100.00
56668;BME280;42542;48.360;10.958;2022-10-15T10:31:43;95819.44;;;16.51;99.82
56668;BME280;42542;48.360;10.958;2022-10-15T10:35:01;95815.69;;;16.58;98.20
56668;BME280;42542;48.360;10.958;2022-10-15T10:38:04;95811.78;;;16.67;97.16
56668;BME280;42542;48.360;10.958;2022-10-15T10:41:07;95815.31;;;16.74;96.26
56668;BME280;42542;48.360;10.958;2022-10-15T10:44:18;95812.78;;;16.79;96.00
56668;BME280;42542;48.360;10.958;2022-10-15T10:47:22;95821.50;;;16.88;94.38
56668;BME280;42542;48.360;10.958;2022-10-15T10:50:32;95806.78;;;16.91;93.98
56668;BME280;42542;48.360;10.958;2022-10-15T10:53:49;95819.41;;;16.97;93.39
56668;BME280;42542;48.360;10.958;2022-10-15T10:56:51;95818.78;;;16.95;92.11
56668;BME280;42542;48.360;10.958;2022-10-15T10:59:56;95827.69;;;17.02;91.09
56668;BME280;42542;48.360;10.958;2022-10-15T11:02:58;95828.97;;;17.06;91.35
56668;BME280;42542;48.360;10.958;2022-10-15T11:12:43;95832.22;;;17.14;86.85
56668;BME280;42542;48.360;10.958;2022-10-15T11:16:07;95836.19;;;17.18;87.70
56668;BME280;42542;48.360;10.958;2022-10-15T11:19:27;95813.72;;;17.25;87.62
56668;BME280;42542;48.360;10.958;2022-10-15T11:30:55;95829.25;;;17.42;86.15
56668;BME280;42542;48.360;10.958;2022-10-15T11:40:26;95824.19;;;17.59;84.76
56668;BME280;42542;48.360;10.958;2022-10-15T11:56:39;95822.38;;;17.46;82.47
56668;BME280;42542;48.360;10.958;2022-10-15T11:59:54;95828.41;;;17.48;83.56
56668;BME280;42542;48.360;10.958;2022-10-15T12:03:04;95822.34;;;17.53;84.33
56668;BME280;42542;48.360;10.958;2022-10-15T12:06:11;95820.06;;;17.56;83.26
56668;BME280;42542;48.360;10.958;2022-10-15T12:09:39;95829.38;;;17.61;83.59
56668;BME280;42542;48.360;10.958;2022-10-15T12:12:41;95814.22;;;17.53;81.59
56668;BME280;42542;48.360;10.958;2022-10-15T12:19:21;95796.56;;;17.57;82.77
56668;BME280;42542;48.360;10.958;2022-10-15T12:22:39;95804.66;;;17.57;81.13
56668;BME280;42542;48.360;10.958;2022-10-15T12:25:44;95810.91;;;17.58;80.54
56668;BME280;42542;48.360;10.958;2022-10-15T12:28:47;95802.59;;;17.52;80.06
56668;BME280;42542;48.360;10.958;2022-10-15T12:31:52;95802.81;;;17.51;79.18
56668;BME280;42542;48.360;10.958;2022-10-15T12:35:02;95802.41;;;17.47;78.48
56668;BME280;42542;48.360;10.958;2022-10-15T12:38:19;95801.78;;;17.45;79.07
56668;BME280;42542;48.360;10.958;2022-10-15T12:41:33;95803.44;;;17.53;79.40
56668;BME280;42542;48.360;10.958;2022-10-15T12:44:36;95790.78;;;17.47;79.40
56668;BME280;42542;48.360;10.958;2022-10-15T12:48:17;95798.00;;;17.60;78.78
56668;BME280;42542;48.360;10.958;2022-10-15T12:54:43;95806.09;;;17.66;79.61
56668;BME280;42542;48.360;10.958;2022-10-15T12:57:54;95800.09;;;17.64;79.68
56668;BME280;42542;48.360;10.958;2022-10-15T13:00:56;95802.34;;;17.67;80.27
56668;BME280;42542;48.360;10.958;2022-10-15T13:03:58;95792.56;;;17.66;79.21
56668;BME280;42542;48.360;10.958;2022-10-15T13:07:04;95791.31;;;17.69;79.69
56668;BME280;42542;48.360;10.958;2022-10-15T13:10:39;95775.72;;;17.71;80.15
56668;BME280;42542;48.360;10.958;2022-10-15T13:13:41;95779.88;;;17.67;80.04
56668;BME280;42542;48.360;10.958;2022-10-15T13:16:44;95779.81;;;17.80;79.87
56668;BME280;42542;48.360;10.958;2022-10-15T13:19:53;95781.06;;;17.84;78.23
56668;BME280;42542;48.360;10.958;2022-10-15T13:23:23;95787.66;;;17.88;77.98
56668;BME280;42542;48.360;10.958;2022-10-15T13:26:33;95787.25;;;17.91;79.34
56668;BME280;42542;48.360;10.958;2022-10-15T13:29:35;95780.78;;;17.92;77.90
56668;BME280;42542;48.360;10.958;2022-10-15T13:32:54;95776.25;;;17.86;76.01
56668;BME280;42542;48.360;10.958;2022-10-15T13:36:07;95788.72;;;17.87;76.95
56668;BME280;42542;48.360;10.958;2022-10-15T13:39:30;95786.41;;;17.90;77.60
56668;BME280;42542;48.360;10.958;2022-10-15T13:42:59;95788.28;;;17.90;77.49
56668;BME280;42542;48.360;10.958;2022-10-15T13:46:01;95789.94;;;17.91;77.23
56668;BME280;42542;48.360;10.958;2022-10-15T13:49:10;95792.19;;;17.94;76.75
56668;BME280;42542;48.360;10.958;2022-10-15T13:52:13;95790.72;;;17.98;76.80
56668;BME280;42542;48.360;10.958;2022-10-15T13:55:23;95787.97;;;18.05;76.99
56668;BME280;42542;48.360;10.958;2022-10-15T14:01:31;95781.91;;;18.09;75.06
56668;BME280;42542;48.360;10.958;2022-10-15T14:04:33;95785.22;;;18.11;74.79
56668;BME280;42542;48.360;10.958;2022-10-15T14:07:35;95776.91;;;18.13;74.63
56668;BME280;42542;48.360;10.958;2022-10-15T14:10:37;95779.75;;;18.18;75.52
56668;BME280;42542;48.360;10.958;2022-10-15T14:13:53;95780.59;;;18.18;74.88
56668;BME280;42542;48.360;10.958;2022-10-15T14:16:56;95789.97;;;18.16;74.69
56668;BME280;42542;48.360;10.958;2022-10-15T14:20:01;95793.13;;;18.13;74.39
56668;BME280;42542;48.360;10.958;2022-10-15T14:23:24;95787.72;;;18.13;74.44
56668;BME280;42542;48.360;10.958;2022-10-15T14:26:27;95793.56;;;18.10;74.92
56668;BME280;42542;48.360;10.958;2022-10-15T14:29:46;95794.59;;;18.09;75.05
56668;BME280;42542;48.360;10.958;2022-10-15T14:32:49;95795.06;;;18.06;76.28
56668;BME280;42542;48.360;10.958;2022-10-15T14:36:24;95798.84;;;17.98;76.13
56668;BME280;42542;48.360;10.958;2022-10-15T14:39:30;95797.66;;;17.87;76.64
56668;BME280;42542;48.360;10.958;2022-10-15T14:42:36;95800.59;;;17.86;77.02
56668;BME280;42542;48.360;10.958;2022-10-15T14:45:39;95794.94;;;17.87;77.97
56668;BME280;42542;48.360;10.958;2022-10-15T14:48:42;95792.28;;;17.81;78.27
56668;BME280;42542;48.360;10.958;2022-10-15T14:51:50;95801.44;;;17.80;78.59
56668;BME280;42542;48.360;10.958;2022-10-15T14:55:05;95801.88;;;17.77;78.16
56668;BME280;42542;48.360;10.958;2022-10-15T14:58:20;95812.69;;;17.77;78.15
56668;BME280;42542;48.360;10.958;2022-10-15T15:01:23;95810.63;;;17.72;78.29
56668;BME280;42542;48.360;10.958;2022-10-15T15:04:38;95808.38;;;17.69;79.14
56668;BME280;42542;48.360;10.958;2022-10-15T15:07:40;95807.53;;;17.69;79.01
56668;BME280;42542;48.360;10.958;2022-10-15T15:10:42;95804.22;;;17.67;79.27
56668;BME280;42542;48.360;10.958;2022-10-15T15:13:46;95801.13;;;17.63;79.49
56668;BME280;42542;48.360;10.958;2022-10-15T15:16:48;95802.34;;;17.61;79.55
56668;BME280;42542;48.360;10.958;2022-10-15T15:19:51;95795.31;;;17.53;79.73
56668;BME280;42542;48.360;10.958;2022-10-15T15:22:53;95802.38;;;17.54;80.16
56668;BME280;42542;48.360;10.958;2022-10-15T15:25:55;95802.00;;;17.50;80.94
56668;BME280;42542;48.360;10.958;2022-10-15T15:28:57;95810.53;;;17.47;81.15
56668;BME280;42542;48.360;10.958;2022-10-15T15:32:01;95805.78;;;17.43;81.29
56668;BME280;42542;48.360;10.958;2022-10-15T15:35:13;95793.50;;;17.40;81.74
56668;BME280;42542;48.360;10.958;2022-10-15T15:38:22;95793.09;;;17.37;82.21
56668;BME280;42542;48.360;10.958;2022-10-15T15:41:24;95796.03;;;17.35;82.96
56668;BME280;42542;48.360;10.958;2022-10-15T15:44:26;95804.56;;;17.32;82.77
56668;BME280;42542;48.360;10.958;2022-10-15T15:47:32;95804.97;;;17.29;82.84
56668;BME280;42542;48.360;10.958;2022-10-15T15:50:34;95810.41;;;17.23;83.32
56668;BME280;42542;48.360;10.958;2022-10-15T15:53:36;95820.81;;;17.19;84.31
56668;BME280;42542;48.360;10.958;2022-10-15T15:56:38;95827.06;;;17.13;83.45
56668;BME280;42542;48.360;10.958;2022-10-15T15:59:41;95810.06;;;17.06;82.99
56668;BME280;42542;48.360;10.958;2022-10-15T16:02:43;95820.22;;;17.04;83.86
56668;BME280;42542;48.360;10.958;2022-10-15T16:05:45;95821.72;;;17.00;84.31
56668;BME280;42542;48.360;10.958;2022-10-15T16:08:49;95812.34;;;16.96;84.51
56668;BME280;42542;48.360;10.958;2022-10-15T16:11:51;95809.47;;;16.91;85.20
56668;BME280;42542;48.360;10.958;2022-10-15T16:14:53;95810.31;;;16.85;85.31
56668;BME280;42542;48.360;10.958;2022-10-15T16:17:56;95825.06;;;16.82;85.63
56668;BME280;42542;48.360;10.958;2022-10-15T16:20:57;95823.81;;;16.78;85.77
56668;BME280;42542;48.360;10.958;2022-10-15T16:23:59;95830.03;;;16.72;86.14
56668;BME280;42542;48.360;10.958;2022-10-15T16:27:06;95829.84;;;16.67;85.68
56668;BME280;42542;48.360;10.958;2022-10-15T16:30:08;95831.50;;;16.61;85.59
56668;BME280;42542;48.360;10.958;2022-10-15T16:33:10;95843.50;;;16.59;85.30
56668;BME280;42542;48.360;10.958;2022-10-15T16:36:12;95846.66;;;16.56;85.23
56668;BME280;42542;48.360;10.958;2022-10-15T16:39:13;95841.66;;;16.53;85.78
56668;BME280;42542;48.360;10.958;2022-10-15T16:42:15;95850.78;;;16.52;85.22
56668;BME280;42542;48.360;10.958;2022-10-15T16:45:22;95853.28;;;16.47;86.35
56668;BME280;42542;48.360;10.958;2022-10-15T16:48:25;95853.47;;;16.45;87.28
56668;BME280;42542;48.360;10.958;2022-10-15T16:51:27;95868.44;;;16.41;87.33
56668;BME280;42542;48.360;10.958;2022-10-15T16:54:28;95867.59;;;16.34;86.68
56668;BME280;42542;48.360;10.958;2022-10-15T16:57:30;95870.69;;;16.37;87.24
56668;BME280;42542;48.360;10.958;2022-10-15T17:00:32;95871.53;;;16.38;87.91
56668;BME280;42542;48.360;10.958;2022-10-15T17:03:35;95868.63;;;16.33;87.39
56668;BME280;42542;48.360;10.958;2022-10-15T17:06:37;95872.75;;;16.29;88.11
56668;BME280;42542;48.360;10.958;2022-10-15T17:09:39;95887.06;;;16.23;88.60
56668;BME280;42542;48.360;10.958;2022-10-15T17:12:41;95872.34;;;16.19;88.92
56668;BME280;42542;48.360;10.958;2022-10-15T17:15:42;95887.25;;;16.21;89.25
56668;BME280;42542;48.360;10.958;2022-10-15T17:18:45;95896.00;;;16.23;89.72
56668;BME280;42542;48.360;10.958;2022-10-15T17:21:47;95886.84;;;16.18;90.02
56668;BME280;42542;48.360;10.958;2022-10-15T17:24:48;95888.53;;;16.19;90.92
56668;BME280;42542;48.360;10.958;2022-10-15T17:27:50;95903.03;;;16.18;91.17
56668;BME280;42542;48.360;10.958;2022-10-15T17:30:52;95911.75;;;16.13;92.16